createdAt,value
2018-12-05T00:00:47.068Z,3.40
2018-12-05T00:03:16.191Z,3.40
2018-12-05T00:05:46.472Z,3.40
2018-12-05T00:08:15.652Z,3.40
2018-12-05T00:10:44.776Z,3.40
2018-12-05T00:13:15.342Z,3.30
2018-12-05T00:15:44.460Z,3.30
2018-12-05T00:18:13.539Z,3.20
2018-12-05T00:20:42.672Z,3.20
2018-12-05T00:23:11.823Z,3.10
2018-12-05T00:25:40.987Z,3.10
2018-12-05T00:28:10.069Z,3.10
2018-12-05T00:30:39.213Z,3.10
2018-12-05T00:33:08.456Z,3.00
2018-12-05T00:35:37.652Z,3.00
2018-12-05T00:38:06.801Z,3.00
2018-12-05T00:40:35.909Z,3.00
2018-12-05T00:43:05.225Z,2.90
2018-12-05T00:45:34.342Z,2.90
2018-12-05T00:48:03.483Z,2.90
2018-12-05T00:50:32.585Z,2.90
2018-12-05T00:53:01.747Z,2.90
2018-12-05T00:55:30.855Z,2.90
2018-12-05T00:57:59.987Z,2.90
2018-12-05T01:00:29.131Z,2.90
2018-12-05T01:02:58.335Z,2.90
2018-12-05T01:05:27.676Z,2.90
2018-12-05T01:07:56.997Z,2.90
2018-12-05T01:10:26.135Z,2.90
2018-12-05T01:12:55.242Z,2.90
2018-12-05T01:15:24.467Z,2.90
2018-12-05T01:17:53.623Z,2.80
2018-12-05T01:20:22.965Z,2.80
2018-12-05T01:22:52.121Z,2.80
2018-12-05T01:25:21.247Z,2.70
2018-12-05T01:27:50.483Z,2.70
2018-12-05T01:30:19.569Z,2.80
2018-12-05T01:32:48.699Z,2.70
2018-12-05T01:35:17.796Z,2.70
2018-12-05T01:37:47.355Z,2.70
2018-12-05T01:40:16.518Z,2.70
2018-12-05T01:42:45.628Z,2.60
2018-12-05T01:45:14.747Z,2.70
2018-12-05T01:47:43.876Z,2.60
2018-12-05T01:50:13.120Z,2.60
2018-12-05T01:52:42.333Z,2.60
2018-12-05T01:55:11.534Z,2.60
2018-12-05T01:57:40.646Z,2.50
2018-12-05T02:00:10.244Z,2.60
2018-12-05T02:02:39.334Z,2.60
2018-12-05T02:05:08.606Z,2.50
2018-12-05T02:07:37.704Z,2.60
2018-12-05T02:10:07.130Z,2.50
2018-12-05T02:12:36.236Z,2.40
2018-12-05T02:15:05.840Z,2.40
2018-12-05T02:17:35.044Z,2.50
2018-12-05T02:20:04.972Z,2.40
2018-12-05T02:22:34.092Z,2.40
2018-12-05T02:25:03.307Z,2.40
2018-12-05T02:27:32.484Z,2.40
2018-12-05T02:30:01.625Z,2.40
2018-12-05T02:32:30.757Z,2.40
2018-12-05T02:34:59.887Z,2.40
2018-12-05T02:37:28.976Z,2.40
2018-12-05T02:39:58.114Z,2.40
2018-12-05T02:42:27.261Z,2.30
2018-12-05T02:44:57.439Z,2.30
2018-12-05T02:47:26.759Z,2.30
2018-12-05T02:49:55.882Z,2.20
2018-12-05T02:52:24.984Z,2.20
2018-12-05T02:54:54.127Z,2.20
2018-12-05T02:57:23.260Z,2.20
2018-12-05T02:59:52.404Z,2.20
2018-12-05T03:02:21.536Z,2.30
2018-12-05T03:04:50.773Z,2.30
2018-12-05T03:07:19.879Z,2.20
2018-12-05T03:09:48.994Z,2.20
2018-12-05T03:12:18.269Z,2.30
2018-12-05T03:14:47.401Z,2.30
2018-12-05T03:17:16.583Z,2.30
2018-12-05T03:19:45.775Z,2.20
2018-12-05T03:22:14.848Z,2.20
2018-12-05T03:24:43.935Z,2.20
2018-12-05T03:27:13.085Z,2.20
2018-12-05T03:29:42.167Z,2.30
2018-12-05T03:32:13.352Z,2.30
2018-12-05T03:34:42.562Z,2.30
2018-12-05T03:37:11.623Z,2.30
2018-12-05T03:39:40.745Z,2.30
2018-12-05T03:42:10.173Z,2.30
2018-12-05T03:44:39.606Z,2.30
2018-12-05T03:47:08.756Z,2.40
2018-12-05T03:49:39.897Z,2.40
2018-12-05T03:52:09.039Z,2.50
2018-12-05T03:54:38.123Z,2.50
2018-12-05T03:57:07.227Z,2.50
2018-12-05T03:59:36.319Z,2.60
2018-12-05T04:02:05.455Z,2.60
2018-12-05T04:04:34.741Z,2.60
2018-12-05T04:07:03.824Z,2.70
2018-12-05T04:09:32.963Z,2.70
2018-12-05T04:12:02.126Z,2.70
2018-12-05T04:14:31.395Z,2.70
2018-12-05T04:17:00.559Z,2.80
2018-12-05T04:19:29.888Z,2.70
2018-12-05T04:21:59.020Z,2.70
2018-12-05T04:24:28.100Z,2.70
2018-12-05T04:26:57.189Z,2.70
2018-12-05T04:29:26.400Z,2.70
2018-12-05T04:31:55.528Z,2.70
2018-12-05T04:34:24.876Z,2.70
2018-12-05T04:36:54.016Z,2.70
2018-12-05T04:39:23.097Z,2.70
2018-12-05T04:41:52.728Z,2.70
2018-12-05T04:44:21.943Z,2.70
2018-12-05T04:46:51.318Z,2.60
2018-12-05T04:49:20.435Z,2.60
2018-12-05T04:51:49.565Z,2.60
2018-12-05T04:54:18.804Z,2.60
2018-12-05T04:56:47.945Z,2.50
2018-12-05T04:59:17.018Z,2.60
2018-12-05T05:01:46.197Z,2.50
2018-12-05T05:04:15.309Z,2.50
2018-12-05T05:06:44.555Z,2.50
2018-12-05T05:09:13.681Z,2.50
2018-12-05T05:11:42.800Z,2.40
2018-12-05T05:14:11.928Z,2.40
2018-12-05T05:16:41.194Z,2.40
2018-12-05T05:19:10.530Z,2.40
2018-12-05T05:21:39.716Z,2.40
2018-12-05T05:24:08.873Z,2.40
2018-12-05T05:26:38.088Z,2.30
2018-12-05T05:29:07.229Z,2.30
2018-12-05T05:31:36.380Z,2.30
2018-12-05T05:34:05.526Z,2.30
2018-12-05T05:36:34.654Z,2.30
2018-12-05T05:39:05.426Z,2.20
2018-12-05T05:41:34.610Z,2.30
2018-12-05T05:44:03.750Z,2.20
2018-12-05T05:46:32.884Z,2.20
2018-12-05T05:49:02.128Z,2.20
2018-12-05T05:51:31.265Z,2.20
2018-12-05T05:54:00.376Z,2.20
2018-12-05T05:56:29.450Z,2.20
2018-12-05T05:58:58.586Z,2.20
2018-12-05T06:01:27.698Z,2.20
2018-12-05T06:04:01.401Z,2.20
2018-12-05T06:06:30.585Z,2.10
2018-12-05T06:08:59.721Z,2.10
2018-12-05T06:11:28.957Z,2.10
2018-12-05T06:13:58.073Z,2.10
2018-12-05T06:16:27.405Z,2.10
2018-12-05T06:18:56.711Z,2.10
2018-12-05T06:21:26.132Z,2.10
2018-12-05T06:23:55.341Z,2.00
2018-12-05T06:26:24.438Z,2.00
2018-12-05T06:28:53.511Z,2.00
2018-12-05T06:31:22.604Z,2.00
2018-12-05T06:33:51.745Z,2.00
2018-12-05T06:36:20.905Z,2.00
2018-12-05T06:38:50.033Z,2.00
2018-12-05T06:41:19.145Z,2.00
2018-12-05T06:43:48.304Z,2.00
2018-12-05T06:46:17.445Z,2.00
2018-12-05T06:48:46.695Z,2.00
2018-12-05T06:51:15.865Z,2.10
2018-12-05T06:53:44.947Z,2.10
2018-12-05T06:56:14.085Z,2.10
2018-12-05T06:58:43.226Z,2.10
2018-12-05T07:01:12.419Z,2.10
2018-12-05T07:03:41.554Z,2.20
2018-12-05T07:06:10.725Z,2.20
2018-12-05T07:08:39.995Z,2.30
2018-12-05T07:11:09.069Z,2.30
2018-12-05T07:13:38.219Z,2.20
2018-12-05T07:16:07.353Z,2.20
2018-12-05T07:18:36.499Z,2.30
2018-12-05T07:21:05.787Z,2.20
2018-12-05T07:23:34.933Z,2.30
2018-12-05T07:26:04.100Z,2.40
2018-12-05T07:28:33.242Z,2.40
2018-12-05T07:31:02.364Z,2.40
2018-12-05T07:33:31.448Z,2.50
2018-12-05T07:36:00.607Z,2.50
2018-12-05T07:38:29.731Z,2.50
2018-12-05T07:40:58.997Z,2.50
2018-12-05T07:43:28.137Z,2.50
2018-12-05T07:45:57.346Z,2.50
2018-12-05T07:48:26.494Z,2.60
2018-12-05T07:50:55.660Z,2.60
2018-12-05T07:53:24.840Z,2.70
2018-12-05T07:55:53.975Z,2.70
2018-12-05T07:58:23.157Z,2.80
2018-12-05T08:00:52.320Z,2.90
2018-12-05T08:03:22.417Z,3.00
2018-12-05T08:05:51.588Z,3.00
2018-12-05T08:08:20.750Z,3.00
2018-12-05T08:10:50.078Z,3.10
2018-12-05T08:13:19.254Z,3.20
2018-12-05T08:15:48.384Z,3.30
2018-12-05T08:18:17.516Z,3.40
2018-12-05T08:20:46.710Z,3.50
2018-12-05T08:23:16.000Z,3.60
2018-12-05T08:25:45.116Z,3.70
2018-12-05T08:28:14.270Z,3.90
2018-12-05T08:30:43.397Z,4.00
2018-12-05T08:33:12.528Z,4.20
2018-12-05T08:35:42.863Z,4.50
2018-12-05T08:38:12.012Z,4.90
2018-12-05T08:40:41.223Z,5.60
2018-12-05T08:43:10.339Z,6.10
2018-12-05T08:45:39.535Z,6.60
2018-12-05T08:48:08.675Z,7.10
2018-12-05T08:50:37.931Z,7.40
2018-12-05T08:53:07.103Z,7.80
2018-12-05T08:55:36.457Z,8.00
2018-12-05T08:59:08.837Z,8.70
2018-12-05T09:01:38.029Z,9.10
2018-12-05T09:04:07.135Z,9.60
2018-12-05T09:06:36.237Z,10.10
2018-12-05T09:09:06.948Z,10.40
2018-12-05T09:11:36.227Z,10.60
2018-12-05T09:14:05.492Z,10.90
2018-12-05T09:16:34.672Z,11.00
2018-12-05T09:19:04.006Z,10.80
2018-12-05T09:21:33.334Z,10.60
2018-12-05T09:24:02.755Z,10.40
2018-12-05T09:26:31.911Z,10.40
2018-12-05T09:29:01.100Z,10.30
2018-12-05T09:31:30.234Z,10.40
2018-12-05T09:33:59.525Z,10.70
2018-12-05T09:36:28.760Z,10.70
2018-12-05T09:38:57.903Z,11.10
2018-12-05T09:41:27.071Z,11.50
2018-12-05T09:43:56.329Z,12.00
2018-12-05T09:46:25.456Z,12.30
2018-12-05T09:48:54.619Z,12.50
2018-12-05T09:51:23.809Z,12.60
2018-12-05T09:53:52.997Z,12.40
2018-12-05T09:56:22.106Z,12.60
2018-12-05T09:58:52.962Z,12.80
2018-12-05T10:01:22.367Z,13.00
2018-12-05T10:03:51.681Z,13.30
2018-12-05T10:06:20.856Z,13.50
2018-12-05T10:08:50.019Z,13.90
2018-12-05T10:11:19.166Z,14.30
2018-12-05T10:13:48.304Z,14.70
2018-12-05T10:16:17.436Z,15.10
2018-12-05T10:18:46.563Z,15.50
2018-12-05T10:21:15.738Z,15.70
2018-12-05T10:23:44.849Z,15.40
2018-12-05T10:26:14.167Z,15.30
2018-12-05T10:28:43.292Z,15.10
2018-12-05T10:31:12.451Z,14.80
2018-12-05T10:33:41.581Z,14.90
2018-12-05T10:36:10.741Z,14.80
2018-12-05T10:38:39.874Z,14.80
2018-12-05T10:41:09.139Z,14.60
2018-12-05T10:43:38.299Z,14.30
2018-12-05T10:46:07.540Z,14.00
2018-12-05T10:48:36.691Z,13.60
2018-12-05T10:51:05.828Z,13.10
2018-12-05T10:53:34.968Z,12.40
2018-12-05T10:56:04.133Z,11.90
2018-12-05T10:58:33.378Z,11.30
2018-12-05T11:01:07.988Z,10.90
2018-12-05T11:03:37.141Z,10.50
2018-12-05T11:06:11.712Z,10.10
2018-12-05T11:08:46.172Z,9.70
2018-12-05T11:11:20.948Z,9.40
2018-12-05T11:13:55.526Z,9.20
2018-12-05T11:16:30.050Z,9.00
2018-12-05T11:19:04.679Z,8.80
2018-12-05T11:21:39.179Z,8.60
2018-12-05T11:24:14.536Z,8.40
2018-12-05T11:26:43.840Z,8.20
2018-12-05T11:29:13.016Z,8.00
2018-12-05T11:31:42.147Z,7.90
2018-12-05T11:34:11.275Z,7.70
2018-12-05T11:36:40.439Z,7.70
2018-12-05T11:39:09.704Z,7.60
2018-12-05T11:41:38.794Z,7.50
2018-12-05T11:44:07.936Z,7.50
2018-12-05T11:46:37.068Z,7.40
2018-12-05T11:49:06.309Z,7.40
2018-12-05T11:51:35.388Z,7.30
2018-12-05T11:54:04.673Z,7.30
2018-12-05T11:56:33.812Z,7.20
2018-12-05T11:59:02.968Z,7.10
2018-12-05T12:01:32.116Z,7.10
2018-12-05T12:04:01.208Z,7.00
2018-12-05T12:06:30.372Z,7.00
2018-12-05T12:08:59.768Z,7.10
2018-12-05T12:11:29.157Z,7.10
2018-12-05T12:13:58.305Z,7.10
2018-12-05T12:16:27.668Z,7.20
2018-12-05T12:18:56.785Z,7.10
2018-12-05T12:21:25.856Z,7.10
2018-12-05T12:23:55.002Z,7.00
2018-12-05T12:26:24.177Z,6.90
2018-12-05T12:28:54.486Z,6.80
2018-12-05T12:31:23.572Z,6.70
2018-12-05T12:33:52.713Z,6.70
2018-12-05T12:36:21.949Z,6.60
2018-12-05T12:38:51.300Z,6.60
2018-12-05T12:41:20.455Z,6.50
2018-12-05T12:43:49.610Z,6.40
2018-12-05T12:46:18.993Z,6.30
2018-12-05T12:48:48.152Z,6.20
2018-12-05T12:51:17.276Z,6.30
2018-12-05T12:53:46.444Z,6.20
2018-12-05T12:56:15.627Z,6.10
2018-12-05T12:58:44.712Z,6.10
2018-12-05T13:01:13.846Z,6.10
2018-12-05T13:03:42.924Z,6.00
2018-12-05T13:06:12.145Z,6.00
2018-12-05T13:08:41.257Z,5.90
2018-12-05T13:11:10.641Z,5.80
2018-12-05T13:13:39.799Z,5.90
2018-12-05T13:16:08.944Z,5.80
2018-12-05T13:18:38.117Z,5.70
2018-12-05T13:21:07.248Z,5.80
2018-12-05T13:23:36.433Z,5.70
2018-12-05T13:26:05.641Z,5.70
2018-12-05T13:28:34.819Z,5.70
2018-12-05T13:31:04.129Z,5.60
2018-12-05T13:33:33.317Z,5.50
2018-12-05T13:36:02.477Z,5.50
2018-12-05T13:38:31.641Z,5.40
2018-12-05T13:41:00.787Z,5.40
2018-12-05T13:43:29.913Z,5.40
2018-12-05T13:45:59.041Z,5.30
2018-12-05T13:48:28.217Z,5.20
2018-12-05T13:50:57.476Z,5.20
2018-12-05T13:53:26.765Z,5.20
2018-12-05T13:55:55.999Z,5.20
2018-12-05T13:58:25.356Z,5.20
2018-12-05T14:00:54.531Z,5.10
2018-12-05T14:03:23.626Z,5.10
2018-12-05T14:05:52.780Z,4.90
2018-12-05T14:08:21.946Z,4.90
2018-12-05T14:10:51.110Z,4.90
2018-12-05T14:13:20.333Z,4.90
2018-12-05T14:15:49.480Z,4.80
2018-12-05T14:18:18.640Z,4.80
2018-12-05T14:20:47.770Z,4.70
2018-12-05T14:23:16.922Z,4.70
2018-12-05T14:25:46.095Z,4.60
2018-12-05T14:28:15.239Z,4.50
2018-12-05T14:30:44.412Z,4.40
2018-12-05T14:33:13.706Z,4.40
2018-12-05T14:35:43.819Z,4.40
2018-12-05T14:38:13.031Z,4.30
2018-12-05T14:40:42.232Z,4.20
2018-12-05T14:43:11.582Z,4.20
2018-12-05T14:45:40.726Z,4.20
2018-12-05T14:48:09.918Z,4.20
2018-12-05T14:50:39.198Z,4.10
2018-12-05T14:53:08.376Z,4.10
2018-12-05T14:55:37.552Z,4.00
2018-12-05T14:58:06.788Z,4.00
2018-12-05T15:00:36.095Z,3.90
2018-12-05T15:03:05.339Z,3.90
2018-12-05T15:05:34.637Z,3.80
2018-12-05T15:08:03.798Z,3.80
2018-12-05T15:10:32.986Z,3.70
2018-12-05T15:13:02.208Z,3.70
2018-12-05T15:15:31.400Z,3.70
2018-12-05T15:18:00.598Z,3.70
2018-12-05T15:20:29.784Z,3.70
2018-12-05T15:22:59.160Z,3.60
2018-12-05T15:25:28.358Z,3.60
2018-12-05T15:27:57.501Z,3.60
2018-12-05T15:30:26.658Z,3.50
2018-12-05T15:32:55.784Z,3.50
2018-12-05T15:35:26.018Z,3.50
2018-12-05T15:37:55.370Z,3.50
2018-12-05T15:40:24.512Z,3.40
2018-12-05T15:42:53.697Z,3.40
2018-12-05T15:45:22.890Z,3.40
2018-12-05T15:47:52.034Z,3.30
2018-12-05T15:50:21.195Z,3.40
2018-12-05T15:52:50.340Z,3.30
2018-12-05T15:55:19.496Z,3.30
2018-12-05T15:57:48.681Z,3.30
2018-12-05T16:00:17.932Z,3.20
2018-12-05T16:02:47.073Z,3.20
2018-12-05T16:05:16.785Z,3.20
2018-12-05T16:07:46.781Z,3.20
2018-12-05T16:10:15.940Z,3.10
2018-12-05T16:12:45.139Z,3.10
2018-12-05T16:15:14.424Z,3.00
2018-12-05T16:17:43.632Z,3.00
2018-12-05T16:20:12.748Z,3.00
2018-12-05T16:22:41.954Z,2.90
2018-12-05T16:25:11.149Z,2.90
2018-12-05T16:27:41.112Z,2.80
2018-12-05T16:30:11.122Z,2.80
2018-12-05T16:32:40.356Z,2.80
2018-12-05T16:35:09.516Z,2.70
2018-12-05T16:37:39.920Z,2.70
2018-12-05T16:40:09.079Z,2.70
2018-12-05T16:42:38.323Z,2.70
2018-12-05T16:45:08.255Z,2.70
2018-12-05T16:47:37.448Z,2.70
2018-12-05T16:50:07.157Z,2.70
2018-12-05T16:52:36.390Z,2.70
2018-12-05T16:55:05.747Z,2.60
2018-12-05T16:57:34.899Z,2.60
2018-12-05T17:00:04.768Z,2.60
2018-12-05T17:02:33.908Z,2.60
2018-12-05T17:05:03.045Z,2.60
2018-12-05T17:07:32.367Z,2.60
2018-12-05T17:10:01.563Z,2.60
2018-12-05T17:12:30.805Z,2.50
2018-12-05T17:14:59.926Z,2.50
2018-12-05T17:17:29.226Z,2.60
2018-12-05T17:19:58.380Z,2.50
2018-12-05T17:22:27.536Z,2.50
2018-12-05T17:24:56.673Z,2.50
2018-12-05T17:27:25.902Z,2.50
2018-12-05T17:29:55.089Z,2.50
2018-12-05T17:32:24.294Z,2.50
2018-12-05T17:34:53.510Z,2.50
2018-12-05T17:37:22.657Z,2.50
2018-12-05T17:39:51.954Z,2.40
2018-12-05T17:42:22.033Z,2.40
2018-12-05T17:44:51.536Z,2.40
2018-12-05T17:47:20.751Z,2.40
2018-12-05T17:49:49.909Z,2.40
2018-12-05T17:52:19.128Z,2.30
2018-12-05T17:54:49.117Z,2.30
2018-12-05T17:57:18.333Z,2.30
2018-12-05T17:59:47.420Z,2.30
2018-12-05T18:02:17.280Z,2.30
2018-12-05T18:04:46.442Z,2.30
2018-12-05T18:07:15.757Z,2.20
2018-12-05T18:09:44.929Z,2.30
2018-12-05T18:12:14.107Z,2.30
2018-12-05T18:14:43.269Z,2.20
2018-12-05T18:17:12.490Z,2.20
2018-12-05T18:19:41.611Z,2.20
2018-12-05T18:22:10.752Z,2.20
2018-12-05T18:24:39.867Z,2.20
2018-12-05T18:27:09.161Z,2.20
2018-12-05T18:29:38.381Z,2.10
2018-12-05T18:32:07.585Z,2.10
2018-12-05T18:34:36.750Z,2.20
2018-12-05T18:37:05.885Z,2.10
2018-12-05T18:39:35.061Z,2.10
2018-12-05T18:42:04.413Z,2.10
2018-12-05T18:44:33.589Z,2.10
2018-12-05T18:47:02.786Z,2.10
2018-12-05T18:49:32.025Z,2.10
2018-12-05T18:52:01.175Z,2.00
2018-12-05T18:54:30.929Z,2.00
2018-12-05T18:57:00.075Z,2.00
2018-12-05T18:59:29.237Z,2.00
2018-12-05T19:01:58.432Z,1.90
2018-12-05T19:04:27.604Z,1.90
2018-12-05T19:06:56.760Z,1.90
2018-12-05T19:09:26.932Z,1.90
2018-12-05T19:11:56.413Z,1.90
2018-12-05T19:14:30.929Z,1.90
2018-12-05T19:17:00.089Z,1.90
2018-12-05T19:19:29.236Z,1.80
2018-12-05T19:21:58.365Z,1.80
2018-12-05T19:24:27.509Z,1.80
2018-12-05T19:26:56.661Z,1.80
2018-12-05T19:29:25.825Z,1.80
2018-12-05T19:31:55.014Z,1.80
2018-12-05T19:34:24.157Z,1.80
2018-12-05T19:36:53.333Z,1.80
2018-12-05T19:39:22.501Z,1.80
2018-12-05T19:41:51.698Z,1.70
2018-12-05T19:44:21.049Z,1.70
2018-12-05T19:46:50.209Z,1.70
2018-12-05T19:49:19.445Z,1.70
2018-12-05T19:51:48.763Z,1.70
2018-12-05T19:54:17.942Z,1.60
2018-12-05T19:56:47.103Z,1.60
2018-12-05T19:59:16.295Z,1.60
2018-12-05T20:01:45.825Z,1.60
2018-12-05T20:04:15.033Z,1.60
2018-12-05T20:06:44.227Z,1.50
2018-12-05T20:09:13.465Z,1.50
2018-12-05T20:11:42.741Z,1.50
2018-12-05T20:14:16.247Z,1.50
2018-12-05T20:16:45.475Z,1.50
2018-12-05T20:19:14.723Z,1.40
2018-12-05T20:21:43.931Z,1.40
2018-12-05T20:24:13.115Z,1.40
2018-12-05T20:26:42.485Z,1.40
2018-12-05T20:29:11.679Z,1.40
2018-12-05T20:31:40.869Z,1.40
2018-12-05T20:34:10.037Z,1.40
2018-12-05T20:36:39.309Z,1.40
2018-12-05T20:39:10.718Z,1.40
2018-12-05T20:41:39.913Z,1.40
2018-12-05T20:44:10.422Z,1.40
2018-12-05T20:46:39.789Z,1.40
2018-12-05T20:49:08.975Z,1.40
2018-12-05T20:51:38.177Z,1.30
2018-12-05T20:54:07.353Z,1.30
2018-12-05T20:56:36.567Z,1.30
2018-12-05T20:59:05.772Z,1.30
2018-12-05T21:01:35.281Z,1.30
2018-12-05T21:04:04.622Z,1.30
2018-12-05T21:06:33.822Z,1.30
2018-12-05T21:09:03.680Z,1.30
2018-12-05T21:11:33.958Z,1.30
2018-12-05T21:14:03.298Z,1.20
2018-12-05T21:16:32.764Z,1.20
2018-12-05T21:19:02.066Z,1.20
2018-12-05T21:21:31.290Z,1.20
2018-12-05T21:24:00.490Z,1.20
2018-12-05T21:26:29.699Z,1.20
2018-12-05T21:28:58.862Z,1.20
2018-12-05T21:31:28.313Z,1.20
2018-12-05T21:33:57.513Z,1.20
2018-12-05T21:36:26.810Z,1.20
2018-12-05T21:38:56.014Z,1.10
2018-12-05T21:41:25.236Z,1.20
2018-12-05T21:43:54.504Z,1.10
2018-12-05T21:46:23.708Z,1.10
2018-12-05T21:48:54.030Z,1.10
2018-12-05T21:51:24.202Z,1.10
2018-12-05T21:53:53.394Z,1.10
2018-12-05T21:56:22.530Z,1.10
2018-12-05T21:58:51.736Z,1.10
2018-12-05T22:01:20.997Z,1.10
2018-12-05T22:03:50.176Z,1.10
2018-12-05T22:06:19.431Z,1.20
2018-12-05T22:08:48.636Z,1.10
2018-12-05T22:11:17.902Z,1.10
2018-12-05T22:13:47.086Z,1.10
2018-12-05T22:16:16.384Z,1.10
2018-12-05T22:18:45.606Z,1.10
2018-12-05T22:21:14.761Z,1.10
2018-12-05T22:23:43.964Z,1.10
2018-12-05T22:26:13.122Z,1.10
2018-12-05T22:28:42.320Z,1.10
2018-12-05T22:31:12.026Z,1.10
2018-12-05T22:33:41.208Z,1.10
2018-12-05T22:36:10.386Z,1.10
2018-12-05T22:38:39.598Z,1.10
2018-12-05T22:41:08.925Z,1.10
2018-12-05T22:43:38.144Z,1.10
2018-12-05T22:46:07.338Z,1.10
2018-12-05T22:48:36.564Z,1.10
2018-12-05T22:51:05.896Z,1.10
2018-12-05T22:53:35.165Z,1.10
2018-12-05T22:56:04.476Z,1.10
2018-12-05T22:58:33.698Z,1.10
2018-12-05T23:01:03.750Z,1.10
2018-12-05T23:03:34.871Z,1.10
2018-12-05T23:06:04.388Z,1.10
2018-12-05T23:08:33.574Z,1.10
2018-12-05T23:11:02.782Z,1.10
2018-12-05T23:13:32.079Z,1.10
2018-12-05T23:16:01.241Z,1.10
2018-12-05T23:18:30.632Z,1.10
2018-12-05T23:20:59.802Z,1.10
2018-12-05T23:23:28.985Z,1.10
2018-12-05T23:25:59.155Z,1.10
2018-12-05T23:28:28.351Z,1.00
2018-12-05T23:30:57.646Z,1.00
2018-12-05T23:33:26.899Z,1.00
2018-12-05T23:35:56.026Z,1.00
2018-12-05T23:38:25.181Z,1.00
2018-12-05T23:40:55.293Z,1.00
2018-12-05T23:43:24.714Z,1.00
2018-12-05T23:45:53.898Z,0.90
2018-12-05T23:48:23.211Z,1.00
2018-12-05T23:50:52.396Z,1.00
2018-12-05T23:53:21.812Z,1.00
2018-12-05T23:55:51.034Z,1.00
2018-12-05T23:58:20.194Z,1.00
